Saint Charles, South Carolina
Current Conditions -  °F | °C
As of 11:15 AM on Sunday 23 Nov 2014 (Local Time) from KSMS Reporting Station
Light Rain Light Rain  
Wind Chill: 57°   Ceiling: 700
Heat Index: 57°   Visibility: 5mi
Dew Point: 57°   Wind: 6mph
Humidity: 100%   Direction: 90°E
Pressure: 30.08"   Gusts: NA
Location:  34.0634°N, 80.2361°W
Report Text: KSMS 231615Z AUTO 09005KT 5SM -RA FEW003 OVC007 14/14 A3008 RMK AO2
Loading
Personal Weather Stations






























Interactive Weather Map New forecast layout! Learn more

10-Day Weather Forecast

Advertisements
Track Severe Weather on mobile